Historique des stations

Station météo de Ménétréols-sous-Vatan

Altitude de la station : 192 m







Données météorologiques pour le 28/09/2022
Date
Heure
Températures Humidité Point de rosée Vitesse
du vent
Direction Rafales Windchill Pression Pluviométrie
Cumul
Date
Heure
Températures Humidité Point de rosée Vitesse
du vent
Direction Rafales Windchill Pression Pluviométrie
Cumul
28/09/2022 10:4711.7 °C97 %11.1 °C5 km/hESE10 km/h11.7 1002 hPa4.8 mm
28/09/2022 10:4611.7 °C97 %11.1 °C3 km/hE50 km/h11.7 1002 hPa4.8 mm
28/09/2022 10:3211.4 °C97 %11.1 °C6 km/hSE11 km/h11.7 1002 hPa4.8 mm
28/09/2022 10:3111.4 °C97 %11.1 °C5 km/hSE50 km/h11.7 1002 hPa4.8 mm
28/09/2022 10:1711.4 °C97 %11.1 °C2 km/hESE13 km/h11.7 1002 hPa4.8 mm
28/09/2022 10:1511.4 °C97 %11.1 °C8 km/hSE50 km/h11.1 1002 hPa4.8 mm
28/09/2022 10:0211.4 °C97 %11.1 °C2 km/hSSE13 km/h11.7 1002 hPa4.8 mm
28/09/2022 10:0011.4 °C97 %11.1 °C2 km/hSE50 km/h11.7 1002 hPa4.8 mm
28/09/2022 09:4711.4 °C97 %11.1 °C5 km/hSE13 km/h11.7 1001 hPa4.2 mm
28/09/2022 09:4511.4 °C97 %11.1 °C3 km/hSSE50 km/h11.7 1001 hPa4.2 mm
28/09/2022 09:3511.5 °C97 %11.1 °C3 km/hSE16 km/h11.7 1001 hPa4 mm
28/09/2022 09:3511.5 °C97 %11.1 °C3 km/hSE16 km/h11.7 1001 hPa4 mm
28/09/2022 09:1511.4 °C97 %11.1 °C13 km/hSE50 km/h10.0 1001 hPa4 mm
28/09/2022 09:0111.7 °C97 %11.1 °C11 km/hSE50 km/h10.0 1001 hPa4 mm
28/09/2022 08:4513.3 °C97 %12.8 °C29 km/hENE50 km/h9.4 1000 hPa2.8 mm
28/09/2022 08:1613.2 °C97 %12.8 °C27 km/hENE50 km/h9.4 1000 hPa2 mm
28/09/2022 07:3013.0 °C97 %12.8 °C27 km/hENE50 km/h8.9 1000 hPa1.8 mm
28/09/2022 07:1513.0 °C97 %12.8 °C23 km/hENE50 km/h9.4 1000 hPa1.8 mm
28/09/2022 07:0213.0 °C97 %12.8 °C26 km/hENE37 km/h9.4 1001 hPa1.8 mm
28/09/2022 07:0013.1 °C97 %12.8 °C19 km/hNE50 km/h10.6 1001 hPa1.8 mm
28/09/2022 06:1813.2 °C97 %12.8 °C19 km/hENE29 km/h10.6 1001 hPa1.6 mm
28/09/2022 06:1513.2 °C97 %12.8 °C24 km/hENE50 km/h10.0 1001 hPa1.6 mm
28/09/2022 06:0213.2 °C97 %12.8 °C21 km/hNE34 km/h10.6 1001 hPa1.6 mm
28/09/2022 06:0013.2 °C97 %12.8 °C19 km/hENE50 km/h10.6 1001 hPa1.6 mm
28/09/2022 05:4713.3 °C97 %12.8 °C34 km/hENE35 km/h8.9 1001 hPa1.6 mm
28/09/2022 05:4513.3 °C97 %12.8 °C27 km/hE50 km/h9.4 1001 hPa1.6 mm
28/09/2022 05:3213.3 °C97 %12.8 °C29 km/hENE42 km/h9.4 1001 hPa1.6 mm
28/09/2022 05:3013.3 °C97 %12.8 °C27 km/hENE50 km/h9.4 1001 hPa1.6 mm
28/09/2022 05:1713.4 °C97 %12.8 °C23 km/hENE35 km/h10.6 1001 hPa1.6 mm
28/09/2022 05:1513.4 °C97 %12.8 °C32 km/hENE50 km/h9.4 1001 hPa1.6 mm
28/09/2022 05:0213.6 °C97 %13.3 °C29 km/hENE40 km/h9.4 1001 hPa1.6 mm
28/09/2022 05:0013.6 °C97 %13.3 °C29 km/hENE50 km/h9.4 1001 hPa1.6 mm
28/09/2022 04:4713.7 °C97 %13.3 °C34 km/hENE48 km/h9.4 1001 hPa1.4 mm
28/09/2022 04:4513.8 °C97 %13.3 °C39 km/hENE50 km/h9.4 1001 hPa1.4 mm
28/09/2022 04:3213.9 °C97 %13.3 °C37 km/hE47 km/h9.4 1001 hPa1.2 mm
28/09/2022 04:3013.9 °C97 %13.3 °C29 km/hE45 km/h10.0 1001 hPa1.2 mm
28/09/2022 04:1613.8 °C97 %13.3 °C40 km/hENE45 km/h9.4 1001 hPa1.2 mm
28/09/2022 04:1513.8 °C97 %13.3 °C32 km/hE45 km/h10.0 1001 hPa1.2 mm
28/09/2022 04:0213.9 °C97 %13.3 °C29 km/hENE45 km/h10.0 1001 hPa1.2 mm
28/09/2022 04:0013.9 °C97 %13.3 °C27 km/hENE45 km/h10.6 1001 hPa1.2 mm
28/09/2022 03:4613.9 °C97 %13.3 °C26 km/hENE39 km/h10.6 1001 hPa1.2 mm
28/09/2022 03:4513.9 °C97 %13.3 °C31 km/hENE45 km/h10.0 1001 hPa1.2 mm
28/09/2022 03:3214.0 °C97 %13.3 °C34 km/hENE45 km/h9.4 1001 hPa1.2 mm
28/09/2022 03:3114.0 °C97 %13.3 °C32 km/hENE45 km/h10.0 1002 hPa1.2 mm
28/09/2022 03:1714.0 °C97 %13.3 °C27 km/hE43 km/h10.6 1002 hPa1.2 mm
28/09/2022 03:1614.0 °C97 %13.3 °C34 km/hENE45 km/h9.4 1002 hPa1.2 mm
28/09/2022 03:0414.0 °C97 %13.3 °C37 km/hENE42 km/h9.4 1002 hPa1 mm
28/09/2022 03:0114.0 °C97 %13.3 °C26 km/hENE45 km/h10.6 1002 hPa1 mm
28/09/2022 02:4914.0 °C97 %13.3 °C37 km/hENE43 km/h9.4 1002 hPa1 mm
28/09/2022 02:4614.0 °C97 %13.3 °C35 km/hENE45 km/h9.4 1002 hPa1 mm
28/09/2022 02:3414.1 °C97 %13.9 °C26 km/hE40 km/h10.6 1002 hPa0.8 mm
28/09/2022 02:3014.1 °C97 %13.9 °C29 km/hENE45 km/h10.0 1002 hPa0.8 mm
28/09/2022 02:1814.1 °C97 %13.9 °C31 km/hE37 km/h10.0 1002 hPa0.2 mm
28/09/2022 02:1514.1 °C97 %13.9 °C26 km/hENE45 km/h10.6 1002 hPa0.2 mm
28/09/2022 02:0314.1 °C97 %13.9 °C23 km/hE35 km/h11.1 1002 hPa-
28/09/2022 02:0014.1 °C97 %13.9 °C29 km/hE40 km/h10.0 1002 hPa-
28/09/2022 01:4814.1 °C97 %13.9 °C19 km/hE37 km/h11.7 1003 hPa-
28/09/2022 01:4514.1 °C97 %13.9 °C24 km/hENE29 km/h10.6 1003 hPa-
28/09/2022 01:3214.1 °C97 %13.9 °C24 km/hENE32 km/h10.6 1003 hPa4.4 mm
28/09/2022 01:3014.1 °C97 %13.9 °C24 km/hENE47 km/h10.6 1003 hPa4.4 mm
28/09/2022 01:1614.1 °C97 %13.9 °C29 km/hENE37 km/h10.0 1003 hPa4.4 mm
28/09/2022 01:1514.1 °C97 %13.9 °C26 km/hENE47 km/h10.6 1003 hPa4.4 mm
28/09/2022 01:0114.1 °C97 %13.9 °C32 km/hENE35 km/h10.0 1003 hPa4.4 mm
28/09/2022 01:0014.1 °C97 %13.9 °C26 km/hENE47 km/h10.6 1003 hPa4.4 mm
28/09/2022 00:4614.1 °C97 %13.9 °C24 km/hENE35 km/h10.6 1003 hPa4.2 mm
28/09/2022 00:4514.1 °C97 %13.9 °C18 km/hNE47 km/h11.7 1003 hPa4.2 mm
28/09/2022 00:3414.1 °C97 %13.9 °C19 km/hENE35 km/h11.7 1003 hPa4.2 mm
28/09/2022 00:3014.1 °C97 %13.9 °C26 km/hE47 km/h10.6 1003 hPa4.2 mm
28/09/2022 00:2014.0 °C97 %13.3 °C23 km/hENE34 km/h11.1 1003 hPa4.2 mm
28/09/2022 00:1614.0 °C97 %13.3 °C16 km/hENE47 km/h11.7 1003 hPa4.2 mm
28/09/2022 00:0513.9 °C97 %13.3 °C18 km/hENE37 km/h11.7 1003 hPa4.2 mm
28/09/2022 00:0113.9 °C97 %13.3 °C26 km/hNE47 km/h10.6 1004 hPa4.2 mm


Minima :

Température : 11.4 °C
Humidité : 97 %
Point de rosée : 11.1 °C
Vent moyen : 2 km/h
Windchill : 8.9
Pression atm. : 1000 hPa
Maxima :

Température : 14.1 °C
Humidité : 97 %
Point de rosée : 13.9 °C
Vent moyen : 40 km/h
Windchill : 11.7
Pression atm. : 1004 hPa
Rafales max : 50 km/h
Cumul de pluie sur 24H : 4.8 mm

Ménétréols-sous-Vatan est une commune du département Indre (36).
La station météorologique du réseau de l'association la plus proche de Ménétréols-sous-Vatan est celle de Luçay-le-Libre



Icône Facebook Association Météo Centre Icône Twitter Association Météo Centre Icône Chaîne Youtube Association Météo Centre Icône contact Association Météo Centre Icône Insta Association Météo Centre